sensor_id;sensor_type;location;lat;lon;timestamp;temperature;humidity
47835;DHT22;63086;45.138;10.038;2022-09-09T00:02:04;24.10;74.00
47835;DHT22;63086;45.138;10.038;2022-09-09T00:04:37;24.00;74.20
47835;DHT22;63086;45.138;10.038;2022-09-09T00:09:52;24.00;74.20
47835;DHT22;63086;45.138;10.038;2022-09-09T00:12:39;24.00;74.30
47835;DHT22;63086;45.138;10.038;2022-09-09T00:15:14;24.00;74.40
47835;DHT22;63086;45.138;10.038;2022-09-09T00:17:43;23.90;74.40
47835;DHT22;63086;45.138;10.038;2022-09-09T00:23:01;23.90;74.50
47835;DHT22;63086;45.138;10.038;2022-09-09T00:25:40;23.90;74.70
47835;DHT22;63086;45.138;10.038;2022-09-09T00:28:20;23.90;74.80
47835;DHT22;63086;45.138;10.038;2022-09-09T00:30:48;23.80;74.80
47835;DHT22;63086;45.138;10.038;2022-09-09T00:33:17;23.80;74.90
47835;DHT22;63086;45.138;10.038;2022-09-09T00:35:53;23.80;75.00
47835;DHT22;63086;45.138;10.038;2022-09-09T00:38:28;23.80;75.00
47835;DHT22;63086;45.138;10.038;2022-09-09T00:46:56;23.70;75.20
47835;DHT22;63086;45.138;10.038;2022-09-09T00:54:48;23.70;75.50
47835;DHT22;63086;45.138;10.038;2022-09-09T00:57:30;23.70;75.70
47835;DHT22;63086;45.138;10.038;2022-09-09T01:11:52;23.70;76.00
47835;DHT22;63086;45.138;10.038;2022-09-09T01:14:39;23.60;76.10
47835;DHT22;63086;45.138;10.038;2022-09-09T01:26:10;23.50;76.20
47835;DHT22;63086;45.138;10.038;2022-09-09T01:28:39;23.60;76.30
47835;DHT22;63086;45.138;10.038;2022-09-09T01:31:14;23.60;76.20
47835;DHT22;63086;45.138;10.038;2022-09-09T01:33:45;23.60;76.30
47835;DHT22;63086;45.138;10.038;2022-09-09T01:36:24;23.50;76.50
47835;DHT22;63086;45.138;10.038;2022-09-09T01:38:53;23.50;76.60
47835;DHT22;63086;45.138;10.038;2022-09-09T01:41:20;23.40;76.50
47835;DHT22;63086;45.138;10.038;2022-09-09T01:43:54;23.50;76.70
47835;DHT22;63086;45.138;10.038;2022-09-09T01:46:22;23.40;76.70
47835;DHT22;63086;45.138;10.038;2022-09-09T01:48:53;23.40;76.70
47835;DHT22;63086;45.138;10.038;2022-09-09T01:51:21;23.40;76.70
47835;DHT22;63086;45.138;10.038;2022-09-09T01:53:49;23.50;76.70
47835;DHT22;63086;45.138;10.038;2022-09-09T01:56:29;23.40;76.70
47835;DHT22;63086;45.138;10.038;2022-09-09T02:04:30;23.40;76.40
47835;DHT22;63086;45.138;10.038;2022-09-09T02:07:01;23.50;76.40
47835;DHT22;63086;45.138;10.038;2022-09-09T02:09:30;23.50;76.40
47835;DHT22;63086;45.138;10.038;2022-09-09T02:12:08;23.50;76.30
47835;DHT22;63086;45.138;10.038;2022-09-09T02:15:11;23.50;76.30
47835;DHT22;63086;45.138;10.038;2022-09-09T02:17:46;23.40;76.20
47835;DHT22;63086;45.138;10.038;2022-09-09T02:20:18;23.40;76.30
47835;DHT22;63086;45.138;10.038;2022-09-09T02:22:56;23.40;76.40
47835;DHT22;63086;45.138;10.038;2022-09-09T02:25:26;23.40;76.50
47835;DHT22;63086;45.138;10.038;2022-09-09T02:27:58;23.40;76.60
47835;DHT22;63086;45.138;10.038;2022-09-09T02:30:28;23.30;76.80
47835;DHT22;63086;45.138;10.038;2022-09-09T02:32:58;23.30;76.80
47835;DHT22;63086;45.138;10.038;2022-09-09T02:35:48;23.20;76.90
47835;DHT22;63086;45.138;10.038;2022-09-09T02:38:21;23.20;77.00
47835;DHT22;63086;45.138;10.038;2022-09-09T02:40:58;23.30;77.10
47835;DHT22;63086;45.138;10.038;2022-09-09T02:43:24;23.20;77.20
47835;DHT22;63086;45.138;10.038;2022-09-09T02:46:02;23.20;77.60
47835;DHT22;63086;45.138;10.038;2022-09-09T02:48:41;23.20;77.60
47835;DHT22;63086;45.138;10.038;2022-09-09T02:51:24;23.20;77.60
47835;DHT22;63086;45.138;10.038;2022-09-09T02:56:33;23.20;77.70
47835;DHT22;63086;45.138;10.038;2022-09-09T02:59:04;23.20;77.80
47835;DHT22;63086;45.138;10.038;2022-09-09T03:01:31;23.20;77.80
47835;DHT22;63086;45.138;10.038;2022-09-09T03:03:59;23.20;77.90
47835;DHT22;63086;45.138;10.038;2022-09-09T03:06:25;23.20;77.90
47835;DHT22;63086;45.138;10.038;2022-09-09T03:09:02;23.30;77.90
47835;DHT22;63086;45.138;10.038;2022-09-09T03:11:29;23.20;77.90
47835;DHT22;63086;45.138;10.038;2022-09-09T03:13:57;23.20;77.90
47835;DHT22;63086;45.138;10.038;2022-09-09T03:16:25;23.20;78.00
47835;DHT22;63086;45.138;10.038;2022-09-09T03:18:53;23.20;78.20
47835;DHT22;63086;45.138;10.038;2022-09-09T03:21:20;23.30;78.30
47835;DHT22;63086;45.138;10.038;2022-09-09T03:23:46;23.20;78.20
47835;DHT22;63086;45.138;10.038;2022-09-09T03:26:13;23.20;78.30
47835;DHT22;63086;45.138;10.038;2022-09-09T03:28:44;23.20;78.30
47835;DHT22;63086;45.138;10.038;2022-09-09T03:31:13;23.20;79.20
47835;DHT22;63086;45.138;10.038;2022-09-09T03:33:41;23.10;79.00
47835;DHT22;63086;45.138;10.038;2022-09-09T03:36:10;23.10;79.20
47835;DHT22;63086;45.138;10.038;2022-09-09T03:38:37;23.10;79.30
47835;DHT22;63086;45.138;10.038;2022-09-09T03:41:04;23.00;79.50
47835;DHT22;63086;45.138;10.038;2022-09-09T03:43:34;23.00;79.40
47835;DHT22;63086;45.138;10.038;2022-09-09T03:46:01;23.00;79.50
47835;DHT22;63086;45.138;10.038;2022-09-09T03:48:28;23.00;79.50
47835;DHT22;63086;45.138;10.038;2022-09-09T03:50:56;23.00;79.60
47835;DHT22;63086;45.138;10.038;2022-09-09T03:53:24;22.90;79.80
47835;DHT22;63086;45.138;10.038;2022-09-09T03:55:53;22.90;79.90
47835;DHT22;63086;45.138;10.038;2022-09-09T03:58:26;22.90;79.90
47835;DHT22;63086;45.138;10.038;2022-09-09T04:01:02;22.80;79.90
47835;DHT22;63086;45.138;10.038;2022-09-09T04:03:28;22.80;79.90
47835;DHT22;63086;45.138;10.038;2022-09-09T04:05:59;22.80;79.90
47835;DHT22;63086;45.138;10.038;2022-09-09T04:08:27;22.80;79.90
47835;DHT22;63086;45.138;10.038;2022-09-09T04:10:54;22.80;79.80
47835;DHT22;63086;45.138;10.038;2022-09-09T04:13:24;22.80;79.70
47835;DHT22;63086;45.138;10.038;2022-09-09T04:15:52;22.90;79.60
47835;DHT22;63086;45.138;10.038;2022-09-09T04:18:19;22.90;79.60
47835;DHT22;63086;45.138;10.038;2022-09-09T04:20:49;22.80;79.60
47835;DHT22;63086;45.138;10.038;2022-09-09T04:23:18;22.80;80.40
47835;DHT22;63086;45.138;10.038;2022-09-09T04:25:47;22.80;80.00
47835;DHT22;63086;45.138;10.038;2022-09-09T04:28:15;22.80;80.20
47835;DHT22;63086;45.138;10.038;2022-09-09T04:30:43;22.70;80.20
47835;DHT22;63086;45.138;10.038;2022-09-09T04:33:10;22.80;80.30
47835;DHT22;63086;45.138;10.038;2022-09-09T04:35:38;22.70;80.40
47835;DHT22;63086;45.138;10.038;2022-09-09T04:38:05;22.70;81.30
47835;DHT22;63086;45.138;10.038;2022-09-09T04:40:34;22.60;80.70
47835;DHT22;63086;45.138;10.038;2022-09-09T04:43:02;22.60;80.60
47835;DHT22;63086;45.138;10.038;2022-09-09T04:45:31;22.60;81.30
47835;DHT22;63086;45.138;10.038;2022-09-09T04:47:58;22.60;80.50
47835;DHT22;63086;45.138;10.038;2022-09-09T04:50:25;22.60;80.40
47835;DHT22;63086;45.138;10.038;2022-09-09T04:53:04;22.60;80.30
47835;DHT22;63086;45.138;10.038;2022-09-09T04:55:32;22.60;80.20
47835;DHT22;63086;45.138;10.038;2022-09-09T04:58:04;22.60;80.30
47835;DHT22;63086;45.138;10.038;2022-09-09T05:00:32;22.60;80.40
47835;DHT22;63086;45.138;10.038;2022-09-09T05:03:05;22.60;81.10
47835;DHT22;63086;45.138;10.038;2022-09-09T05:05:33;22.60;80.70
47835;DHT22;63086;45.138;10.038;2022-09-09T05:08:04;22.60;80.90
47835;DHT22;63086;45.138;10.038;2022-09-09T05:10:32;22.50;81.10
47835;DHT22;63086;45.138;10.038;2022-09-09T05:12:59;22.60;80.90
47835;DHT22;63086;45.138;10.038;2022-09-09T05:15:28;22.60;80.80
47835;DHT22;63086;45.138;10.038;2022-09-09T05:17:59;22.70;80.70
47835;DHT22;63086;45.138;10.038;2022-09-09T05:20:27;22.60;80.80
47835;DHT22;63086;45.138;10.038;2022-09-09T05:22:55;22.60;80.60
47835;DHT22;63086;45.138;10.038;2022-09-09T05:25:23;22.70;80.60
47835;DHT22;63086;45.138;10.038;2022-09-09T05:27:54;22.70;80.40
47835;DHT22;63086;45.138;10.038;2022-09-09T05:30:21;22.70;80.30
47835;DHT22;63086;45.138;10.038;2022-09-09T05:32:50;22.70;80.40
47835;DHT22;63086;45.138;10.038;2022-09-09T05:35:18;22.70;80.30
47835;DHT22;63086;45.138;10.038;2022-09-09T05:37:45;22.70;80.30
47835;DHT22;63086;45.138;10.038;2022-09-09T05:40:12;22.80;80.30
47835;DHT22;63086;45.138;10.038;2022-09-09T05:42:40;22.80;80.10
47835;DHT22;63086;45.138;10.038;2022-09-09T05:45:08;22.90;80.10
47835;DHT22;63086;45.138;10.038;2022-09-09T05:47:36;22.90;80.00
47835;DHT22;63086;45.138;10.038;2022-09-09T05:50:05;23.00;79.80
47835;DHT22;63086;45.138;10.038;2022-09-09T05:52:31;23.00;79.80
47835;DHT22;63086;45.138;10.038;2022-09-09T05:54:59;23.00;79.80
47835;DHT22;63086;45.138;10.038;2022-09-09T05:57:25;23.00;79.80
47835;DHT22;63086;45.138;10.038;2022-09-09T05:59:52;23.00;79.80
47835;DHT22;63086;45.138;10.038;2022-09-09T06:02:19;23.10;79.90
47835;DHT22;63086;45.138;10.038;2022-09-09T06:04:46;23.10;79.90
47835;DHT22;63086;45.138;10.038;2022-09-09T06:07:12;23.10;79.90
47835;DHT22;63086;45.138;10.038;2022-09-09T06:09:40;23.00;79.80
47835;DHT22;63086;45.138;10.038;2022-09-09T06:12:07;23.10;79.90
47835;DHT22;63086;45.138;10.038;2022-09-09T06:14:36;23.10;80.00
47835;DHT22;63086;45.138;10.038;2022-09-09T06:17:03;23.10;79.90
47835;DHT22;63086;45.138;10.038;2022-09-09T06:19:30;23.10;79.90
47835;DHT22;63086;45.138;10.038;2022-09-09T06:21:58;23.20;79.90
47835;DHT22;63086;45.138;10.038;2022-09-09T06:24:26;23.20;79.70
47835;DHT22;63086;45.138;10.038;2022-09-09T06:26:53;23.20;79.70
47835;DHT22;63086;45.138;10.038;2022-09-09T06:29:23;23.20;79.70
47835;DHT22;63086;45.138;10.038;2022-09-09T06:31:50;23.20;79.90
47835;DHT22;63086;45.138;10.038;2022-09-09T06:34:20;23.20;79.90
47835;DHT22;63086;45.138;10.038;2022-09-09T06:36:50;23.20;79.90
47835;DHT22;63086;45.138;10.038;2022-09-09T06:39:18;23.20;80.10
47835;DHT22;63086;45.138;10.038;2022-09-09T06:41:45;23.10;80.30
47835;DHT22;63086;45.138;10.038;2022-09-09T06:44:34;23.10;80.30
47835;DHT22;63086;45.138;10.038;2022-09-09T06:47:01;23.20;80.40
47835;DHT22;63086;45.138;10.038;2022-09-09T06:49:27;23.20;80.30
47835;DHT22;63086;45.138;10.038;2022-09-09T06:51:53;23.20;80.40
47835;DHT22;63086;45.138;10.038;2022-09-09T06:54:20;23.30;81.00
47835;DHT22;63086;45.138;10.038;2022-09-09T06:56:48;23.30;80.20
47835;DHT22;63086;45.138;10.038;2022-09-09T06:59:22;23.30;80.10
47835;DHT22;63086;45.138;10.038;2022-09-09T07:01:49;23.30;80.10
47835;DHT22;63086;45.138;10.038;2022-09-09T07:04:18;23.30;80.80
47835;DHT22;63086;45.138;10.038;2022-09-09T07:06:45;23.30;80.10
47835;DHT22;63086;45.138;10.038;2022-09-09T07:09:16;23.40;80.10
47835;DHT22;63086;45.138;10.038;2022-09-09T07:11:50;23.40;80.10
47835;DHT22;63086;45.138;10.038;2022-09-09T07:14:20;23.40;80.20
47835;DHT22;63086;45.138;10.038;2022-09-09T07:16:51;23.50;80.10
47835;DHT22;63086;45.138;10.038;2022-09-09T07:19:18;23.60;80.00
47835;DHT22;63086;45.138;10.038;2022-09-09T07:21:48;23.60;79.70
47835;DHT22;63086;45.138;10.038;2022-09-09T07:24:18;23.60;79.60
47835;DHT22;63086;45.138;10.038;2022-09-09T07:26:44;23.60;79.60
47835;DHT22;63086;45.138;10.038;2022-09-09T07:29:12;23.60;79.70
47835;DHT22;63086;45.138;10.038;2022-09-09T07:31:42;23.60;79.80
47835;DHT22;63086;45.138;10.038;2022-09-09T07:34:13;23.70;79.70
47835;DHT22;63086;45.138;10.038;2022-09-09T07:36:40;23.70;79.90
47835;DHT22;63086;45.138;10.038;2022-09-09T07:39:12;23.80;79.80
47835;DHT22;63086;45.138;10.038;2022-09-09T07:41:48;23.80;79.70
47835;DHT22;63086;45.138;10.038;2022-09-09T07:44:20;23.90;80.20
47835;DHT22;63086;45.138;10.038;2022-09-09T07:46:50;23.90;79.40
47835;DHT22;63086;45.138;10.038;2022-09-09T07:49:22;24.00;79.40
47835;DHT22;63086;45.138;10.038;2022-09-09T07:51:49;24.00;79.30
47835;DHT22;63086;45.138;10.038;2022-09-09T07:54:18;24.00;79.30
47835;DHT22;63086;45.138;10.038;2022-09-09T07:56:48;24.10;79.20
47835;DHT22;63086;45.138;10.038;2022-09-09T07:59:16;24.20;79.10
47835;DHT22;63086;45.138;10.038;2022-09-09T08:01:48;24.30;79.00
47835;DHT22;63086;45.138;10.038;2022-09-09T08:04:19;24.40;78.90
47835;DHT22;63086;45.138;10.038;2022-09-09T08:06:59;24.40;78.30
47835;DHT22;63086;45.138;10.038;2022-09-09T08:09:27;24.40;78.00
47835;DHT22;63086;45.138;10.038;2022-09-09T08:12:00;24.40;77.90
47835;DHT22;63086;45.138;10.038;2022-09-09T08:14:28;24.50;77.90
47835;DHT22;63086;45.138;10.038;2022-09-09T08:16:56;24.60;77.90
47835;DHT22;63086;45.138;10.038;2022-09-09T08:19:26;24.60;77.80
47835;DHT22;63086;45.138;10.038;2022-09-09T08:21:55;24.60;77.60
47835;DHT22;63086;45.138;10.038;2022-09-09T08:24:22;24.60;77.30
47835;DHT22;63086;45.138;10.038;2022-09-09T08:26:50;24.60;77.10
47835;DHT22;63086;45.138;10.038;2022-09-09T08:29:18;24.60;77.10
47835;DHT22;63086;45.138;10.038;2022-09-09T08:31:52;24.60;77.20
47835;DHT22;63086;45.138;10.038;2022-09-09T08:34:21;24.60;77.10
47835;DHT22;63086;45.138;10.038;2022-09-09T08:36:50;24.70;77.10
47835;DHT22;63086;45.138;10.038;2022-09-09T08:39:20;24.80;76.80
47835;DHT22;63086;45.138;10.038;2022-09-09T08:50:15;25.00;75.60
47835;DHT22;63086;45.138;10.038;2022-09-09T08:57:55;24.80;68.10
47835;DHT22;63086;45.138;10.038;2022-09-09T09:00:34;24.60;68.00
47835;DHT22;63086;45.138;10.038;2022-09-09T09:03:19;24.60;67.90
47835;DHT22;63086;45.138;10.038;2022-09-09T09:08:49;24.30;67.80
47835;DHT22;63086;45.138;10.038;2022-09-09T09:11:17;24.20;67.20
47835;DHT22;63086;45.138;10.038;2022-09-09T09:16:34;24.20;66.80
47835;DHT22;63086;45.138;10.038;2022-09-09T09:19:05;24.10;66.60
47835;DHT22;63086;45.138;10.038;2022-09-09T09:21:41;24.00;67.20
47835;DHT22;63086;45.138;10.038;2022-09-09T09:24:30;23.90;67.70
47835;DHT22;63086;45.138;10.038;2022-09-09T09:27:15;23.90;67.30
47835;DHT22;63086;45.138;10.038;2022-09-09T09:29:48;24.10;67.10
47835;DHT22;63086;45.138;10.038;2022-09-09T09:32:18;24.20;66.50
47835;DHT22;63086;45.138;10.038;2022-09-09T09:35:10;24.30;66.20
47835;DHT22;63086;45.138;10.038;2022-09-09T09:37:40;24.30;65.50
47835;DHT22;63086;45.138;10.038;2022-09-09T09:40:16;24.40;65.50
47835;DHT22;63086;45.138;10.038;2022-09-09T09:42:59;24.50;64.70
47835;DHT22;63086;45.138;10.038;2022-09-09T09:45:35;24.70;64.10
47835;DHT22;63086;45.138;10.038;2022-09-09T09:48:09;24.80;64.10
47835;DHT22;63086;45.138;10.038;2022-09-09T09:50:57;24.90;63.20
47835;DHT22;63086;45.138;10.038;2022-09-09T09:53:30;24.90;63.00
47835;DHT22;63086;45.138;10.038;2022-09-09T09:56:02;25.00;62.80
47835;DHT22;63086;45.138;10.038;2022-09-09T09:58:31;25.10;62.40
47835;DHT22;63086;45.138;10.038;2022-09-09T10:01:01;25.30;63.00
47835;DHT22;63086;45.138;10.038;2022-09-09T10:03:31;25.50;62.40
47835;DHT22;63086;45.138;10.038;2022-09-09T10:05:58;25.70;62.30
47835;DHT22;63086;45.138;10.038;2022-09-09T10:08:26;25.90;61.20
47835;DHT22;63086;45.138;10.038;2022-09-09T10:16:14;26.00;60.90
47835;DHT22;63086;45.138;10.038;2022-09-09T10:19:06;26.20;60.80
47835;DHT22;63086;45.138;10.038;2022-09-09T10:21:53;26.30;60.50
47835;DHT22;63086;45.138;10.038;2022-09-09T10:38:17;26.90;59.50
47835;DHT22;63086;45.138;10.038;2022-09-09T10:56:37;27.10;57.20
47835;DHT22;63086;45.138;10.038;2022-09-09T10:59:19;27.10;57.40
47835;DHT22;63086;45.138;10.038;2022-09-09T11:02:05;27.30;57.30
47835;DHT22;63086;45.138;10.038;2022-09-09T11:04:42;27.40;57.10
47835;DHT22;63086;45.138;10.038;2022-09-09T11:07:18;27.50;57.10
47835;DHT22;63086;45.138;10.038;2022-09-09T11:09:53;27.60;57.10
47835;DHT22;63086;45.138;10.038;2022-09-09T11:12:24;27.60;56.60
47835;DHT22;63086;45.138;10.038;2022-09-09T11:15:02;27.70;56.50
47835;DHT22;63086;45.138;10.038;2022-09-09T11:17:40;27.70;56.40
47835;DHT22;63086;45.138;10.038;2022-09-09T11:20:12;27.80;55.80
47835;DHT22;63086;45.138;10.038;2022-09-09T11:22:55;27.80;56.00
47835;DHT22;63086;45.138;10.038;2022-09-09T11:25:37;27.80;56.00
47835;DHT22;63086;45.138;10.038;2022-09-09T11:31:32;28.10;56.40
47835;DHT22;63086;45.138;10.038;2022-09-09T11:34:19;28.10;56.30
47835;DHT22;63086;45.138;10.038;2022-09-09T11:42:43;28.40;55.70
47835;DHT22;63086;45.138;10.038;2022-09-09T11:45:30;28.40;55.60
47835;DHT22;63086;45.138;10.038;2022-09-09T11:47:59;28.40;55.20
47835;DHT22;63086;45.138;10.038;2022-09-09T11:53:05;28.50;55.00
47835;DHT22;63086;45.138;10.038;2022-09-09T11:55:33;28.50;54.60
47835;DHT22;63086;45.138;10.038;2022-09-09T11:58:05;28.60;54.80
47835;DHT22;63086;45.138;10.038;2022-09-09T12:00:43;28.60;54.60
47835;DHT22;63086;45.138;10.038;2022-09-09T12:05:59;28.70;53.90
47835;DHT22;63086;45.138;10.038;2022-09-09T12:08:28;28.70;54.10
47835;DHT22;63086;45.138;10.038;2022-09-09T12:10:59;28.70;53.90
47835;DHT22;63086;45.138;10.038;2022-09-09T12:13:26;28.80;54.10
47835;DHT22;63086;45.138;10.038;2022-09-09T12:15:58;28.90;54.10
47835;DHT22;63086;45.138;10.038;2022-09-09T12:18:35;28.90;53.80
47835;DHT22;63086;45.138;10.038;2022-09-09T12:21:20;29.00;53.60
47835;DHT22;63086;45.138;10.038;2022-09-09T12:23:52;29.00;53.20
47835;DHT22;63086;45.138;10.038;2022-09-09T12:32:23;29.10;52.40
47835;DHT22;63086;45.138;10.038;2022-09-09T12:34:54;29.10;52.20
47835;DHT22;63086;45.138;10.038;2022-09-09T12:37:34;29.10;52.30
47835;DHT22;63086;45.138;10.038;2022-09-09T12:40:04;29.10;52.20
47835;DHT22;63086;45.138;10.038;2022-09-09T12:42:31;29.20;52.40
47835;DHT22;63086;45.138;10.038;2022-09-09T12:45:03;29.20;52.40
47835;DHT22;63086;45.138;10.038;2022-09-09T12:47:53;29.30;52.50
47835;DHT22;63086;45.138;10.038;2022-09-09T12:50:23;29.40;52.40
47835;DHT22;63086;45.138;10.038;2022-09-09T12:52:54;29.40;51.80
47835;DHT22;63086;45.138;10.038;2022-09-09T12:55:35;29.40;51.90
47835;DHT22;63086;45.138;10.038;2022-09-09T12:58:03;29.50;52.10
47835;DHT22;63086;45.138;10.038;2022-09-09T13:00:33;29.60;52.40
47835;DHT22;63086;45.138;10.038;2022-09-09T13:03:17;29.60;52.40
47835;DHT22;63086;45.138;10.038;2022-09-09T13:05:44;29.60;52.20
47835;DHT22;63086;45.138;10.038;2022-09-09T13:08:14;29.60;52.10
47835;DHT22;63086;45.138;10.038;2022-09-09T13:13:17;29.70;51.50
47835;DHT22;63086;45.138;10.038;2022-09-09T13:15:54;29.70;51.20
47835;DHT22;63086;45.138;10.038;2022-09-09T13:18:24;29.70;51.00
47835;DHT22;63086;45.138;10.038;2022-09-09T13:20:51;29.70;51.00
47835;DHT22;63086;45.138;10.038;2022-09-09T13:23:19;29.70;51.00
47835;DHT22;63086;45.138;10.038;2022-09-09T13:25:57;29.70;51.10
47835;DHT22;63086;45.138;10.038;2022-09-09T13:28:29;29.80;51.50
47835;DHT22;63086;45.138;10.038;2022-09-09T13:31:00;29.80;51.50
47835;DHT22;63086;45.138;10.038;2022-09-09T13:33:35;29.80;51.30
47835;DHT22;63086;45.138;10.038;2022-09-09T13:36:09;29.80;50.90
47835;DHT22;63086;45.138;10.038;2022-09-09T13:41:29;29.80;50.60
47835;DHT22;63086;45.138;10.038;2022-09-09T13:43:56;29.70;50.60
47835;DHT22;63086;45.138;10.038;2022-09-09T13:46:40;29.70;50.90
47835;DHT22;63086;45.138;10.038;2022-09-09T13:51:41;29.70;51.00
47835;DHT22;63086;45.138;10.038;2022-09-09T13:54:09;29.70;50.80
47835;DHT22;63086;45.138;10.038;2022-09-09T13:56:38;29.60;50.90
47835;DHT22;63086;45.138;10.038;2022-09-09T13:59:18;29.60;51.10
47835;DHT22;63086;45.138;10.038;2022-09-09T14:01:46;29.60;51.10
47835;DHT22;63086;45.138;10.038;2022-09-09T14:04:12;29.60;51.10
47835;DHT22;63086;45.138;10.038;2022-09-09T14:06:39;29.60;51.00
47835;DHT22;63086;45.138;10.038;2022-09-09T14:09:06;29.60;50.80
47835;DHT22;63086;45.138;10.038;2022-09-09T14:11:36;29.60;50.20
47835;DHT22;63086;45.138;10.038;2022-09-09T14:14:04;29.50;50.20
47835;DHT22;63086;45.138;10.038;2022-09-09T14:16:31;29.50;49.70
47835;DHT22;63086;45.138;10.038;2022-09-09T14:18:57;29.50;49.70
47835;DHT22;63086;45.138;10.038;2022-09-09T14:21:25;29.40;49.80
47835;DHT22;63086;45.138;10.038;2022-09-09T14:23:53;29.40;49.90
47835;DHT22;63086;45.138;10.038;2022-09-09T14:26:21;29.40;50.00
47835;DHT22;63086;45.138;10.038;2022-09-09T14:28:48;29.40;50.20
47835;DHT22;63086;45.138;10.038;2022-09-09T14:31:14;29.40;50.00
47835;DHT22;63086;45.138;10.038;2022-09-09T14:33:42;29.30;49.10
47835;DHT22;63086;45.138;10.038;2022-09-09T14:36:09;29.30;49.00
47835;DHT22;63086;45.138;10.038;2022-09-09T14:38:37;29.20;49.00
47835;DHT22;63086;45.138;10.038;2022-09-09T14:41:13;29.20;48.80
47835;DHT22;63086;45.138;10.038;2022-09-09T14:43:43;29.20;48.50
47835;DHT22;63086;45.138;10.038;2022-09-09T14:46:12;29.20;48.70
47835;DHT22;63086;45.138;10.038;2022-09-09T14:48:39;29.10;48.90
47835;DHT22;63086;45.138;10.038;2022-09-09T14:51:21;29.10;48.90
47835;DHT22;63086;45.138;10.038;2022-09-09T14:53:58;29.10;48.70
47835;DHT22;63086;45.138;10.038;2022-09-09T14:56:27;29.10;48.50
47835;DHT22;63086;45.138;10.038;2022-09-09T14:58:55;29.00;47.90
47835;DHT22;63086;45.138;10.038;2022-09-09T15:01:22;29.00;48.00
47835;DHT22;63086;45.138;10.038;2022-09-09T15:03:50;29.00;47.90
47835;DHT22;63086;45.138;10.038;2022-09-09T15:06:18;29.00;48.20
47835;DHT22;63086;45.138;10.038;2022-09-09T15:08:45;29.00;48.50
47835;DHT22;63086;45.138;10.038;2022-09-09T15:11:14;28.90;48.50
47835;DHT22;63086;45.138;10.038;2022-09-09T15:13:41;28.90;48.40
47835;DHT22;63086;45.138;10.038;2022-09-09T15:16:14;28.90;48.20
47835;DHT22;63086;45.138;10.038;2022-09-09T15:18:41;28.90;48.10
47835;DHT22;63086;45.138;10.038;2022-09-09T15:21:14;28.80;48.30
47835;DHT22;63086;45.138;10.038;2022-09-09T15:23:41;28.80;48.30
47835;DHT22;63086;45.138;10.038;2022-09-09T15:26:08;28.80;48.30
47835;DHT22;63086;45.138;10.038;2022-09-09T15:28:37;28.80;48.30
47835;DHT22;63086;45.138;10.038;2022-09-09T15:31:16;28.80;48.50
47835;DHT22;63086;45.138;10.038;2022-09-09T15:33:55;28.80;48.50
47835;DHT22;63086;45.138;10.038;2022-09-09T15:36:38;28.80;48.60
47835;DHT22;63086;45.138;10.038;2022-09-09T15:39:07;28.80;48.70
47835;DHT22;63086;45.138;10.038;2022-09-09T15:41:33;28.80;48.40
47835;DHT22;63086;45.138;10.038;2022-09-09T15:44:00;28.70;48.20
47835;DHT22;63086;45.138;10.038;2022-09-09T15:46:30;28.70;48.20
47835;DHT22;63086;45.138;10.038;2022-09-09T15:49:10;28.70;48.70
47835;DHT22;63086;45.138;10.038;2022-09-09T15:51:45;28.70;48.40
47835;DHT22;63086;45.138;10.038;2022-09-09T15:54:14;28.70;48.60
47835;DHT22;63086;45.138;10.038;2022-09-09T15:56:42;28.70;48.70
47835;DHT22;63086;45.138;10.038;2022-09-09T15:59:09;28.70;47.70
47835;DHT22;63086;45.138;10.038;2022-09-09T16:01:36;28.60;47.90
47835;DHT22;63086;45.138;10.038;2022-09-09T16:04:02;28.60;47.90
47835;DHT22;63086;45.138;10.038;2022-09-09T16:06:30;28.60;47.40
47835;DHT22;63086;45.138;10.038;2022-09-09T16:08:58;28.60;47.30
47835;DHT22;63086;45.138;10.038;2022-09-09T16:11:28;28.60;47.60
47835;DHT22;63086;45.138;10.038;2022-09-09T16:13:55;28.60;48.00
47835;DHT22;63086;45.138;10.038;2022-09-09T16:16:24;28.60;48.90
47835;DHT22;63086;45.138;10.038;2022-09-09T16:18:53;28.60;48.40
47835;DHT22;63086;45.138;10.038;2022-09-09T16:21:23;28.60;48.60
47835;DHT22;63086;45.138;10.038;2022-09-09T16:23:52;28.60;48.80
47835;DHT22;63086;45.138;10.038;2022-09-09T16:26:19;28.50;49.00
47835;DHT22;63086;45.138;10.038;2022-09-09T16:28:46;28.50;49.30
47835;DHT22;63086;45.138;10.038;2022-09-09T16:31:16;28.50;49.50
47835;DHT22;63086;45.138;10.038;2022-09-09T16:33:43;28.50;49.60
47835;DHT22;63086;45.138;10.038;2022-09-09T16:36:24;28.50;49.70
47835;DHT22;63086;45.138;10.038;2022-09-09T16:38:55;28.40;49.80
47835;DHT22;63086;45.138;10.038;2022-09-09T16:41:24;28.40;50.00
47835;DHT22;63086;45.138;10.038;2022-09-09T16:43:55;28.40;50.20
47835;DHT22;63086;45.138;10.038;2022-09-09T16:46:22;28.40;50.30
47835;DHT22;63086;45.138;10.038;2022-09-09T16:48:50;28.40;50.40
47835;DHT22;63086;45.138;10.038;2022-09-09T16:51:26;28.40;50.70
47835;DHT22;63086;45.138;10.038;2022-09-09T16:53:54;28.30;51.50
47835;DHT22;63086;45.138;10.038;2022-09-09T16:56:23;28.40;51.20
47835;DHT22;63086;45.138;10.038;2022-09-09T16:58:55;28.30;51.40
47835;DHT22;63086;45.138;10.038;2022-09-09T17:01:27;28.30;51.70
47835;DHT22;63086;45.138;10.038;2022-09-09T17:03:57;28.30;51.90
47835;DHT22;63086;45.138;10.038;2022-09-09T17:06:24;28.20;52.00
47835;DHT22;63086;45.138;10.038;2022-09-09T17:08:59;28.30;52.20
47835;DHT22;63086;45.138;10.038;2022-09-09T17:11:26;28.20;52.40
47835;DHT22;63086;45.138;10.038;2022-09-09T17:13:53;28.20;52.50
47835;DHT22;63086;45.138;10.038;2022-09-09T17:16:22;28.20;52.80
47835;DHT22;63086;45.138;10.038;2022-09-09T17:18:52;28.10;52.90
47835;DHT22;63086;45.138;10.038;2022-09-09T17:21:23;28.10;53.20
47835;DHT22;63086;45.138;10.038;2022-09-09T17:23:52;28.10;53.50
47835;DHT22;63086;45.138;10.038;2022-09-09T17:26:22;28.10;53.90
47835;DHT22;63086;45.138;10.038;2022-09-09T17:28:48;28.00;54.00
47835;DHT22;63086;45.138;10.038;2022-09-09T17:31:16;28.00;54.20
47835;DHT22;63086;45.138;10.038;2022-09-09T17:33:48;28.00;54.50
47835;DHT22;63086;45.138;10.038;2022-09-09T17:36:18;28.00;54.70
47835;DHT22;63086;45.138;10.038;2022-09-09T17:38:45;28.00;54.90
47835;DHT22;63086;45.138;10.038;2022-09-09T17:41:15;27.90;55.00
47835;DHT22;63086;45.138;10.038;2022-09-09T17:43:42;27.90;55.10
47835;DHT22;63086;45.138;10.038;2022-09-09T17:48:37;27.90;55.40
47835;DHT22;63086;45.138;10.038;2022-09-09T17:51:04;27.80;55.40